Bloomington, IN

4:25 AM EST on February 13, 2016 (GMT -0500)
APRSWXNET | | Change Station
CLOSE
Current Station
Personal Weather Station
Location: Stanford, IN
Elevation: 958 ft
Nearby Weather Stations

Elev 958 ft 39.07 °N, 86.63 °W | Updated 17 minutes ago

Partly Cloudy
Partly Cloudy
13.0 °F
Feels Like 13.0 °F
N
3.0
Wind Variable Wind from North
Gusts 5.0 mph

Today
High -- | Low -- °F
--% Chance of Precip.
Yesterday
High -- | Low -- °F
Precip. -- in
Pressure 30.50 in
Visibility 10.0 miles
Clouds Few 3500 ft
Dew Point 1.0 °F
Humidity 59%
Rainfall in
Snow Depth Not available.
7:40 AM 6:20 PM
Waxing Crescent, 29% visible
METAR KBMG 130853Z AUTO 35007KT 10SM FEW035 M11/M18 A3046 RMK AO2 SLP326 T11061178 53025
Pressure 30.50 in
Visibility 10.0 miles
Clouds Few 3500 ft
Dew Point 1.0 °F
Humidity 59%
Rainfall in
Snow Depth Not available.
7:40 AM 6:20 PM
Waxing Crescent, 29% visible
METAR KBMG 130853Z AUTO 35007KT 10SM FEW035 M11/M18 A3046 RMK AO2 SLP326 T11061178 53025

10-Day Weather Forecast

Almanac

Astronomy

Feb. 13, 2016 Rise Set
Actual Time
Civil Twilight
Nautical Twilight
Astronomical Twilight
Moon
Length of Visible Light
Length of Day
Tomorrow will be .
, % of the Moon is Illuminated

Today's Extremes

State Highs State Lows

Community

WunderPhotos

Upload Photos

1,892,536 photos uploaded!

WunderBlog® & News

Nearby

Air Quality

  Air Quality AQ Index Pollutant
Not available.

Snow Depth

Station Depth Elevation

Earthquake Activity

City Distance Mag. Time & Date
Minimum magnitude displayed is 2.5.

Coastal Water Temperatures

Place Temperature

Stations

Nearby Weather Stations

Station Location Temp. Windchill Dew Point Humidity Wind Precip. Elev Updated Type
                   

Watches & Warnings

There are currently no watches in effect.